sensor_id;sensor_type;location;lat;lon;timestamp;temperature;humidity
12833;DHT22;6483;51.310;4.462;2024-03-06T00:01:33;7.50;99.90
12833;DHT22;6483;51.310;4.462;2024-03-06T00:04:03;7.40;99.90
12833;DHT22;6483;51.310;4.462;2024-03-06T00:06:29;7.40;99.90
12833;DHT22;6483;51.310;4.462;2024-03-06T00:08:56;7.40;99.90
12833;DHT22;6483;51.310;4.462;2024-03-06T00:11:21;7.40;99.90
12833;DHT22;6483;51.310;4.462;2024-03-06T00:13:50;7.40;99.90
12833;DHT22;6483;51.310;4.462;2024-03-06T00:16:16;7.30;99.90
12833;DHT22;6483;51.310;4.462;2024-03-06T00:18:42;7.30;99.90
12833;DHT22;6483;51.310;4.462;2024-03-06T00:21:08;7.30;99.90
12833;DHT22;6483;51.310;4.462;2024-03-06T00:23:38;7.30;99.90
12833;DHT22;6483;51.310;4.462;2024-03-06T00:26:06;7.30;99.90
12833;DHT22;6483;51.310;4.462;2024-03-06T00:28:35;7.30;99.90
12833;DHT22;6483;51.310;4.462;2024-03-06T00:31:00;7.30;99.90
12833;DHT22;6483;51.310;4.462;2024-03-06T00:33:26;7.40;99.90
12833;DHT22;6483;51.310;4.462;2024-03-06T00:35:52;7.40;99.90
12833;DHT22;6483;51.310;4.462;2024-03-06T00:38:18;7.30;99.90
12833;DHT22;6483;51.310;4.462;2024-03-06T00:40:44;7.40;99.90
12833;DHT22;6483;51.310;4.462;2024-03-06T00:43:11;7.30;99.90
12833;DHT22;6483;51.310;4.462;2024-03-06T00:45:36;7.30;99.90
12833;DHT22;6483;51.310;4.462;2024-03-06T00:48:05;7.30;99.90
12833;DHT22;6483;51.310;4.462;2024-03-06T00:50:33;7.30;99.90
12833;DHT22;6483;51.310;4.462;2024-03-06T00:53:02;7.30;99.90
12833;DHT22;6483;51.310;4.462;2024-03-06T00:55:29;7.30;99.90
12833;DHT22;6483;51.310;4.462;2024-03-06T00:57:57;7.30;99.90
12833;DHT22;6483;51.310;4.462;2024-03-06T01:00:22;7.30;99.90
12833;DHT22;6483;51.310;4.462;2024-03-06T01:02:48;7.30;99.90
12833;DHT22;6483;51.310;4.462;2024-03-06T01:05:15;7.20;99.90
12833;DHT22;6483;51.310;4.462;2024-03-06T01:07:41;7.20;99.90
12833;DHT22;6483;51.310;4.462;2024-03-06T01:10:08;7.20;99.90
12833;DHT22;6483;51.310;4.462;2024-03-06T01:12:35;7.20;99.90
12833;DHT22;6483;51.310;4.462;2024-03-06T01:15:01;7.10;99.90
12833;DHT22;6483;51.310;4.462;2024-03-06T01:17:28;7.10;99.90
12833;DHT22;6483;51.310;4.462;2024-03-06T01:19:57;7.10;99.90
12833;DHT22;6483;51.310;4.462;2024-03-06T01:22:27;7.00;99.90
12833;DHT22;6483;51.310;4.462;2024-03-06T01:24:53;7.00;99.90
12833;DHT22;6483;51.310;4.462;2024-03-06T01:27:22;6.90;99.90
12833;DHT22;6483;51.310;4.462;2024-03-06T01:29:48;6.90;99.90
12833;DHT22;6483;51.310;4.462;2024-03-06T01:32:23;6.70;99.90
12833;DHT22;6483;51.310;4.462;2024-03-06T01:35:15;6.60;99.90
12833;DHT22;6483;51.310;4.462;2024-03-06T01:37:42;6.50;99.90
12833;DHT22;6483;51.310;4.462;2024-03-06T01:40:11;6.50;99.90
12833;DHT22;6483;51.310;4.462;2024-03-06T01:42:38;6.40;99.90
12833;DHT22;6483;51.310;4.462;2024-03-06T01:45:07;6.30;99.90
12833;DHT22;6483;51.310;4.462;2024-03-06T01:47:40;6.30;99.90
12833;DHT22;6483;51.310;4.462;2024-03-06T01:50:07;6.20;99.90
12833;DHT22;6483;51.310;4.462;2024-03-06T01:52:37;6.20;99.90
12833;DHT22;6483;51.310;4.462;2024-03-06T01:55:06;6.00;99.90
12833;DHT22;6483;51.310;4.462;2024-03-06T01:57:32;5.90;99.90
12833;DHT22;6483;51.310;4.462;2024-03-06T02:00:01;5.80;99.90
12833;DHT22;6483;51.310;4.462;2024-03-06T02:02:30;5.80;99.90
12833;DHT22;6483;51.310;4.462;2024-03-06T02:04:57;5.70;99.90
12833;DHT22;6483;51.310;4.462;2024-03-06T02:07:25;5.70;99.90
12833;DHT22;6483;51.310;4.462;2024-03-06T02:09:55;5.70;99.90
12833;DHT22;6483;51.310;4.462;2024-03-06T02:12:21;5.70;99.90
12833;DHT22;6483;51.310;4.462;2024-03-06T02:14:47;5.40;99.90
12833;DHT22;6483;51.310;4.462;2024-03-06T02:17:13;5.60;99.90
12833;DHT22;6483;51.310;4.462;2024-03-06T02:19:43;5.60;99.90
12833;DHT22;6483;51.310;4.462;2024-03-06T02:22:10;5.60;99.90
12833;DHT22;6483;51.310;4.462;2024-03-06T02:24:43;5.60;99.90
12833;DHT22;6483;51.310;4.462;2024-03-06T02:27:13;5.70;99.90
12833;DHT22;6483;51.310;4.462;2024-03-06T02:29:42;5.70;99.90
12833;DHT22;6483;51.310;4.462;2024-03-06T02:32:12;5.70;99.90
12833;DHT22;6483;51.310;4.462;2024-03-06T02:34:38;5.80;99.90
12833;DHT22;6483;51.310;4.462;2024-03-06T02:37:09;5.80;99.90
12833;DHT22;6483;51.310;4.462;2024-03-06T02:39:39;5.80;99.90
12833;DHT22;6483;51.310;4.462;2024-03-06T02:42:05;5.80;99.90
12833;DHT22;6483;51.310;4.462;2024-03-06T02:44:37;5.80;99.90
12833;DHT22;6483;51.310;4.462;2024-03-06T02:47:03;5.80;99.90
12833;DHT22;6483;51.310;4.462;2024-03-06T02:49:29;5.80;99.90
12833;DHT22;6483;51.310;4.462;2024-03-06T02:51:55;5.80;99.90
12833;DHT22;6483;51.310;4.462;2024-03-06T02:54:21;5.80;99.90
12833;DHT22;6483;51.310;4.462;2024-03-06T02:56:50;5.70;99.90
12833;DHT22;6483;51.310;4.462;2024-03-06T02:59:19;5.70;99.90
12833;DHT22;6483;51.310;4.462;2024-03-06T03:01:45;5.70;99.90
12833;DHT22;6483;51.310;4.462;2024-03-06T03:04:11;5.60;99.90
12833;DHT22;6483;51.310;4.462;2024-03-06T03:06:37;5.50;99.90
12833;DHT22;6483;51.310;4.462;2024-03-06T03:09:05;5.40;99.90
12833;DHT22;6483;51.310;4.462;2024-03-06T03:11:31;5.40;99.90
12833;DHT22;6483;51.310;4.462;2024-03-06T03:13:58;5.40;99.90
12833;DHT22;6483;51.310;4.462;2024-03-06T03:16:24;5.40;99.90
12833;DHT22;6483;51.310;4.462;2024-03-06T03:18:49;5.40;99.90
12833;DHT22;6483;51.310;4.462;2024-03-06T03:21:24;5.30;99.90
12833;DHT22;6483;51.310;4.462;2024-03-06T03:23:50;5.40;99.90
12833;DHT22;6483;51.310;4.462;2024-03-06T03:26:15;5.40;99.90
12833;DHT22;6483;51.310;4.462;2024-03-06T03:28:42;5.30;99.90
12833;DHT22;6483;51.310;4.462;2024-03-06T03:31:08;5.30;99.90
12833;DHT22;6483;51.310;4.462;2024-03-06T03:33:43;5.30;99.90
12833;DHT22;6483;51.310;4.462;2024-03-06T03:36:09;5.20;99.90
12833;DHT22;6483;51.310;4.462;2024-03-06T03:38:38;5.10;99.90
12833;DHT22;6483;51.310;4.462;2024-03-06T03:41:13;5.10;99.90
12833;DHT22;6483;51.310;4.462;2024-03-06T03:43:40;5.00;99.90
12833;DHT22;6483;51.310;4.462;2024-03-06T03:46:06;4.90;99.90
12833;DHT22;6483;51.310;4.462;2024-03-06T03:48:38;4.80;99.90
12833;DHT22;6483;51.310;4.462;2024-03-06T03:51:05;4.70;99.90
12833;DHT22;6483;51.310;4.462;2024-03-06T03:53:34;4.60;99.90
12833;DHT22;6483;51.310;4.462;2024-03-06T03:56:00;4.50;99.90
12833;DHT22;6483;51.310;4.462;2024-03-06T03:58:26;4.40;99.90
12833;DHT22;6483;51.310;4.462;2024-03-06T04:00:55;4.30;99.90
12833;DHT22;6483;51.310;4.462;2024-03-06T04:03:21;4.20;99.90
12833;DHT22;6483;51.310;4.462;2024-03-06T04:05:48;4.30;99.90
12833;DHT22;6483;51.310;4.462;2024-03-06T04:08:15;4.10;99.90
12833;DHT22;6483;51.310;4.462;2024-03-06T04:10:42;4.10;99.90
12833;DHT22;6483;51.310;4.462;2024-03-06T04:13:15;4.10;99.90
12833;DHT22;6483;51.310;4.462;2024-03-06T04:15:42;4.00;99.90
12833;DHT22;6483;51.310;4.462;2024-03-06T04:18:10;3.90;99.90
12833;DHT22;6483;51.310;4.462;2024-03-06T04:20:36;3.90;99.90
12833;DHT22;6483;51.310;4.462;2024-03-06T04:23:01;3.90;99.90
12833;DHT22;6483;51.310;4.462;2024-03-06T04:25:33;3.80;99.90
12833;DHT22;6483;51.310;4.462;2024-03-06T04:27:59;3.80;99.90
12833;DHT22;6483;51.310;4.462;2024-03-06T04:30:25;3.70;99.90
12833;DHT22;6483;51.310;4.462;2024-03-06T04:32:50;3.60;99.90
12833;DHT22;6483;51.310;4.462;2024-03-06T04:35:19;3.60;99.90
12833;DHT22;6483;51.310;4.462;2024-03-06T04:37:45;3.60;99.90
12833;DHT22;6483;51.310;4.462;2024-03-06T04:40:11;3.60;99.90
12833;DHT22;6483;51.310;4.462;2024-03-06T04:42:53;3.60;99.90
12833;DHT22;6483;51.310;4.462;2024-03-06T04:45:21;3.50;99.90
12833;DHT22;6483;51.310;4.462;2024-03-06T04:47:47;3.40;99.90
12833;DHT22;6483;51.310;4.462;2024-03-06T04:50:13;3.30;99.90
12833;DHT22;6483;51.310;4.462;2024-03-06T04:52:43;3.30;99.90
12833;DHT22;6483;51.310;4.462;2024-03-06T04:55:16;3.30;99.90
12833;DHT22;6483;51.310;4.462;2024-03-06T04:57:46;3.30;99.90
12833;DHT22;6483;51.310;4.462;2024-03-06T05:00:16;3.20;99.90
12833;DHT22;6483;51.310;4.462;2024-03-06T05:02:43;3.20;99.90
12833;DHT22;6483;51.310;4.462;2024-03-06T05:05:12;3.20;99.90
12833;DHT22;6483;51.310;4.462;2024-03-06T05:07:39;3.20;99.90
12833;DHT22;6483;51.310;4.462;2024-03-06T05:10:05;3.10;99.90
12833;DHT22;6483;51.310;4.462;2024-03-06T05:12:33;3.10;99.90
12833;DHT22;6483;51.310;4.462;2024-03-06T05:14:59;3.10;99.90
12833;DHT22;6483;51.310;4.462;2024-03-06T05:17:25;3.00;99.90
12833;DHT22;6483;51.310;4.462;2024-03-06T05:19:54;3.00;99.90
12833;DHT22;6483;51.310;4.462;2024-03-06T05:22:23;-0.20;99.90
12833;DHT22;6483;51.310;4.462;2024-03-06T05:24:51;3.00;99.90
12833;DHT22;6483;51.310;4.462;2024-03-06T05:27:18;3.00;99.90
12833;DHT22;6483;51.310;4.462;2024-03-06T05:29:44;3.00;99.90
12833;DHT22;6483;51.310;4.462;2024-03-06T05:32:10;3.00;99.90
12833;DHT22;6483;51.310;4.462;2024-03-06T05:34:36;3.00;99.90
12833;DHT22;6483;51.310;4.462;2024-03-06T05:37:02;3.00;99.90
12833;DHT22;6483;51.310;4.462;2024-03-06T05:39:30;5.00;99.90
12833;DHT22;6483;51.310;4.462;2024-03-06T05:42:01;3.00;99.90
12833;DHT22;6483;51.310;4.462;2024-03-06T05:44:31;2.90;99.90
12833;DHT22;6483;51.310;4.462;2024-03-06T05:47:01;2.90;99.90
12833;DHT22;6483;51.310;4.462;2024-03-06T05:49:28;5.20;99.90
12833;DHT22;6483;51.310;4.462;2024-03-06T05:51:54;2.90;99.90
12833;DHT22;6483;51.310;4.462;2024-03-06T05:54:21;2.90;99.90
12833;DHT22;6483;51.310;4.462;2024-03-06T05:56:50;2.80;99.90
12833;DHT22;6483;51.310;4.462;2024-03-06T05:59:17;2.80;99.90
12833;DHT22;6483;51.310;4.462;2024-03-06T06:01:44;2.70;99.90
12833;DHT22;6483;51.310;4.462;2024-03-06T06:04:10;2.50;99.90
12833;DHT22;6483;51.310;4.462;2024-03-06T06:06:36;2.50;99.90
12833;DHT22;6483;51.310;4.462;2024-03-06T06:09:03;2.50;99.90
12833;DHT22;6483;51.310;4.462;2024-03-06T06:11:31;2.40;99.90
12833;DHT22;6483;51.310;4.462;2024-03-06T06:13:57;2.40;99.90
12833;DHT22;6483;51.310;4.462;2024-03-06T06:16:22;2.50;99.90
12833;DHT22;6483;51.310;4.462;2024-03-06T06:18:48;2.50;99.90
12833;DHT22;6483;51.310;4.462;2024-03-06T06:21:14;2.60;99.90
12833;DHT22;6483;51.310;4.462;2024-03-06T06:23:41;2.70;99.90
12833;DHT22;6483;51.310;4.462;2024-03-06T06:26:08;2.70;99.90
12833;DHT22;6483;51.310;4.462;2024-03-06T06:28:36;2.70;99.90
12833;DHT22;6483;51.310;4.462;2024-03-06T06:31:03;2.80;99.90
12833;DHT22;6483;51.310;4.462;2024-03-06T06:33:29;2.90;99.90
12833;DHT22;6483;51.310;4.462;2024-03-06T06:35:55;2.90;99.90
12833;DHT22;6483;51.310;4.462;2024-03-06T06:38:21;2.90;99.90
12833;DHT22;6483;51.310;4.462;2024-03-06T06:40:47;3.00;99.90
12833;DHT22;6483;51.310;4.462;2024-03-06T06:43:13;3.10;99.90
12833;DHT22;6483;51.310;4.462;2024-03-06T06:45:41;3.10;99.90
12833;DHT22;6483;51.310;4.462;2024-03-06T06:48:06;3.10;99.90
12833;DHT22;6483;51.310;4.462;2024-03-06T06:50:34;3.20;99.90
12833;DHT22;6483;51.310;4.462;2024-03-06T06:53:00;3.30;99.90
12833;DHT22;6483;51.310;4.462;2024-03-06T06:55:26;3.50;99.90
12833;DHT22;6483;51.310;4.462;2024-03-06T06:57:52;3.50;99.90
12833;DHT22;6483;51.310;4.462;2024-03-06T07:00:18;3.60;99.90
12833;DHT22;6483;51.310;4.462;2024-03-06T07:02:45;3.70;99.90
12833;DHT22;6483;51.310;4.462;2024-03-06T07:05:11;3.80;99.90
12833;DHT22;6483;51.310;4.462;2024-03-06T07:07:37;3.80;99.90
12833;DHT22;6483;51.310;4.462;2024-03-06T07:10:04;3.90;99.90
12833;DHT22;6483;51.310;4.462;2024-03-06T07:12:30;3.90;99.90
12833;DHT22;6483;51.310;4.462;2024-03-06T07:14:56;3.90;99.90
12833;DHT22;6483;51.310;4.462;2024-03-06T07:17:22;4.00;99.90
12833;DHT22;6483;51.310;4.462;2024-03-06T07:19:48;4.10;99.90
12833;DHT22;6483;51.310;4.462;2024-03-06T07:22:14;4.20;99.90
12833;DHT22;6483;51.310;4.462;2024-03-06T07:24:40;4.30;99.90
12833;DHT22;6483;51.310;4.462;2024-03-06T07:27:07;4.40;99.90
12833;DHT22;6483;51.310;4.462;2024-03-06T07:29:35;4.60;99.90
12833;DHT22;6483;51.310;4.462;2024-03-06T07:32:01;4.70;99.90
12833;DHT22;6483;51.310;4.462;2024-03-06T07:34:26;4.90;99.90
12833;DHT22;6483;51.310;4.462;2024-03-06T07:36:53;5.00;99.90
12833;DHT22;6483;51.310;4.462;2024-03-06T07:39:22;5.20;99.90
12833;DHT22;6483;51.310;4.462;2024-03-06T07:41:48;5.40;99.90
12833;DHT22;6483;51.310;4.462;2024-03-06T07:44:13;5.50;99.90
12833;DHT22;6483;51.310;4.462;2024-03-06T07:46:39;5.70;99.90
12833;DHT22;6483;51.310;4.462;2024-03-06T07:49:05;5.90;99.90
12833;DHT22;6483;51.310;4.462;2024-03-06T07:51:31;6.00;99.90
12833;DHT22;6483;51.310;4.462;2024-03-06T07:53:57;6.30;99.90
12833;DHT22;6483;51.310;4.462;2024-03-06T07:56:24;6.50;99.90
12833;DHT22;6483;51.310;4.462;2024-03-06T07:58:50;6.70;99.90
12833;DHT22;6483;51.310;4.462;2024-03-06T08:01:16;6.90;99.90
12833;DHT22;6483;51.310;4.462;2024-03-06T08:03:42;7.10;99.90
12833;DHT22;6483;51.310;4.462;2024-03-06T08:06:11;7.20;99.90
12833;DHT22;6483;51.310;4.462;2024-03-06T08:08:39;7.30;99.90
12833;DHT22;6483;51.310;4.462;2024-03-06T08:11:05;7.20;99.90
12833;DHT22;6483;51.310;4.462;2024-03-06T08:13:31;6.90;99.90
12833;DHT22;6483;51.310;4.462;2024-03-06T08:15:57;7.30;99.90
12833;DHT22;6483;51.310;4.462;2024-03-06T08:18:23;7.30;99.90
12833;DHT22;6483;51.310;4.462;2024-03-06T08:20:48;7.40;99.90
12833;DHT22;6483;51.310;4.462;2024-03-06T08:23:14;7.50;99.90
12833;DHT22;6483;51.310;4.462;2024-03-06T08:25:40;7.70;99.90
12833;DHT22;6483;51.310;4.462;2024-03-06T08:28:06;7.90;99.90
12833;DHT22;6483;51.310;4.462;2024-03-06T08:30:32;8.20;99.90
12833;DHT22;6483;51.310;4.462;2024-03-06T08:32:58;8.20;99.90
12833;DHT22;6483;51.310;4.462;2024-03-06T08:35:24;8.30;99.90
12833;DHT22;6483;51.310;4.462;2024-03-06T08:37:50;8.30;99.90
12833;DHT22;6483;51.310;4.462;2024-03-06T08:40:19;8.40;99.90
12833;DHT22;6483;51.310;4.462;2024-03-06T08:42:45;8.40;99.90
12833;DHT22;6483;51.310;4.462;2024-03-06T08:45:13;8.30;99.90
12833;DHT22;6483;51.310;4.462;2024-03-06T08:47:44;8.40;99.90
12833;DHT22;6483;51.310;4.462;2024-03-06T08:50:13;8.50;99.90
12833;DHT22;6483;51.310;4.462;2024-03-06T08:52:39;8.50;99.90
12833;DHT22;6483;51.310;4.462;2024-03-06T08:55:12;8.70;99.90
12833;DHT22;6483;51.310;4.462;2024-03-06T08:57:42;8.70;99.90
12833;DHT22;6483;51.310;4.462;2024-03-06T09:00:11;8.60;99.90
12833;DHT22;6483;51.310;4.462;2024-03-06T09:02:37;8.80;99.90
12833;DHT22;6483;51.310;4.462;2024-03-06T09:05:05;9.30;99.90
12833;DHT22;6483;51.310;4.462;2024-03-06T09:07:31;10.00;99.90
12833;DHT22;6483;51.310;4.462;2024-03-06T09:10:03;10.40;99.90
12833;DHT22;6483;51.310;4.462;2024-03-06T09:12:34;11.00;99.90
12833;DHT22;6483;51.310;4.462;2024-03-06T09:15:01;11.00;99.90
12833;DHT22;6483;51.310;4.462;2024-03-06T09:17:28;11.40;99.90
12833;DHT22;6483;51.310;4.462;2024-03-06T09:19:54;12.10;99.90
12833;DHT22;6483;51.310;4.462;2024-03-06T09:22:20;13.00;99.90
12833;DHT22;6483;51.310;4.462;2024-03-06T09:24:49;13.80;99.90
12833;DHT22;6483;51.310;4.462;2024-03-06T09:27:18;14.20;51.90
12833;DHT22;6483;51.310;4.462;2024-03-06T09:29:45;14.80;37.20
12833;DHT22;6483;51.310;4.462;2024-03-06T09:32:12;15.30;2.70
12833;DHT22;6483;51.310;4.462;2024-03-06T09:34:44;15.40;1.00
12833;DHT22;6483;51.310;4.462;2024-03-06T09:37:10;15.20;1.00
12833;DHT22;6483;51.310;4.462;2024-03-06T09:39:36;15.50;1.00
12833;DHT22;6483;51.310;4.462;2024-03-06T09:42:01;16.40;1.00
12833;DHT22;6483;51.310;4.462;2024-03-06T09:44:32;16.80;1.00
12833;DHT22;6483;51.310;4.462;2024-03-06T09:47:03;18.40;1.00
12833;DHT22;6483;51.310;4.462;2024-03-06T09:49:30;20.10;1.00
12833;DHT22;6483;51.310;4.462;2024-03-06T09:51:56;20.30;69.90
12833;DHT22;6483;51.310;4.462;2024-03-06T09:54:25;20.40;99.90
12833;DHT22;6483;51.310;4.462;2024-03-06T09:56:52;20.30;99.90
12833;DHT22;6483;51.310;4.462;2024-03-06T09:59:21;20.00;99.90
12833;DHT22;6483;51.310;4.462;2024-03-06T10:01:53;21.20;99.90
12833;DHT22;6483;51.310;4.462;2024-03-06T10:04:22;18.20;99.90
12833;DHT22;6483;51.310;4.462;2024-03-06T10:06:49;18.20;99.90
12833;DHT22;6483;51.310;4.462;2024-03-06T10:09:22;17.70;29.50
12833;DHT22;6483;51.310;4.462;2024-03-06T10:11:54;18.10;1.00
12833;DHT22;6483;51.310;4.462;2024-03-06T10:14:23;16.60;1.00
12833;DHT22;6483;51.310;4.462;2024-03-06T10:19:23;15.30;1.00
12833;DHT22;6483;51.310;4.462;2024-03-06T10:21:49;15.40;1.00
12833;DHT22;6483;51.310;4.462;2024-03-06T10:24:26;16.30;1.00
12833;DHT22;6483;51.310;4.462;2024-03-06T10:26:56;16.80;1.00
12833;DHT22;6483;51.310;4.462;2024-03-06T10:29:25;16.20;1.00
12833;DHT22;6483;51.310;4.462;2024-03-06T10:31:52;16.00;1.00
12833;DHT22;6483;51.310;4.462;2024-03-06T10:34:20;16.80;1.00
12833;DHT22;6483;51.310;4.462;2024-03-06T10:37:03;17.80;1.00
12833;DHT22;6483;51.310;4.462;2024-03-06T10:39:30;17.80;1.00
12833;DHT22;6483;51.310;4.462;2024-03-06T10:42:02;17.60;1.00
12833;DHT22;6483;51.310;4.462;2024-03-06T10:44:32;16.10;1.00
12833;DHT22;6483;51.310;4.462;2024-03-06T10:47:00;15.00;1.00
12833;DHT22;6483;51.310;4.462;2024-03-06T10:49:27;14.60;1.00
12833;DHT22;6483;51.310;4.462;2024-03-06T10:52:04;14.60;1.00
12833;DHT22;6483;51.310;4.462;2024-03-06T10:54:35;13.80;5.80
12833;DHT22;6483;51.310;4.462;2024-03-06T10:57:05;13.90;1.00
12833;DHT22;6483;51.310;4.462;2024-03-06T10:59:32;13.60;4.70
12833;DHT22;6483;51.310;4.462;2024-03-06T11:01:59;13.20;11.90
12833;DHT22;6483;51.310;4.462;2024-03-06T11:04:29;13.20;20.80
12833;DHT22;6483;51.310;4.462;2024-03-06T11:07:00;12.90;25.60
12833;DHT22;6483;51.310;4.462;2024-03-06T11:09:26;13.00;33.10
12833;DHT22;6483;51.310;4.462;2024-03-06T11:11:54;13.10;41.30
12833;DHT22;6483;51.310;4.462;2024-03-06T11:14:24;14.50;54.50
12833;DHT22;6483;51.310;4.462;2024-03-06T11:20:13;15.90;1.00
12833;DHT22;6483;51.310;4.462;2024-03-06T11:23:16;15.30;1.00
12833;DHT22;6483;51.310;4.462;2024-03-06T11:28:27;15.20;1.00
12833;DHT22;6483;51.310;4.462;2024-03-06T11:30:58;14.70;1.00
12833;DHT22;6483;51.310;4.462;2024-03-06T11:33:44;14.30;1.00
12833;DHT22;6483;51.310;4.462;2024-03-06T11:36:27;13.70;1.00
12833;DHT22;6483;51.310;4.462;2024-03-06T11:39:06;13.70;1.00
12833;DHT22;6483;51.310;4.462;2024-03-06T11:41:52;13.90;3.90
12833;DHT22;6483;51.310;4.462;2024-03-06T11:44:22;13.90;1.00
12833;DHT22;6483;51.310;4.462;2024-03-06T11:49:25;14.10;1.00
12833;DHT22;6483;51.310;4.462;2024-03-06T11:51:53;14.30;1.20
12833;DHT22;6483;51.310;4.462;2024-03-06T11:54:19;14.70;1.00
12833;DHT22;6483;51.310;4.462;2024-03-06T11:56:50;15.00;1.00
12833;DHT22;6483;51.310;4.462;2024-03-06T11:59:23;15.00;1.00
12833;DHT22;6483;51.310;4.462;2024-03-06T12:01:51;15.20;1.00
12833;DHT22;6483;51.310;4.462;2024-03-06T12:04:18;15.40;1.00
12833;DHT22;6483;51.310;4.462;2024-03-06T12:06:46;14.70;1.00
12833;DHT22;6483;51.310;4.462;2024-03-06T12:09:12;14.40;1.00
12833;DHT22;6483;51.310;4.462;2024-03-06T12:11:41;14.30;1.00
12833;DHT22;6483;51.310;4.462;2024-03-06T12:14:28;14.00;1.00
12833;DHT22;6483;51.310;4.462;2024-03-06T12:16:55;14.10;1.00
12833;DHT22;6483;51.310;4.462;2024-03-06T12:19:36;14.00;1.00
12833;DHT22;6483;51.310;4.462;2024-03-06T12:22:05;13.90;1.00
12833;DHT22;6483;51.310;4.462;2024-03-06T12:24:36;13.70;1.00
12833;DHT22;6483;51.310;4.462;2024-03-06T12:27:07;13.70;1.00
12833;DHT22;6483;51.310;4.462;2024-03-06T12:29:34;13.90;1.00
12833;DHT22;6483;51.310;4.462;2024-03-06T12:32:03;14.10;1.00
12833;DHT22;6483;51.310;4.462;2024-03-06T12:34:33;14.10;1.00
12833;DHT22;6483;51.310;4.462;2024-03-06T12:37:10;14.50;1.00
12833;DHT22;6483;51.310;4.462;2024-03-06T12:39:38;14.60;1.00
12833;DHT22;6483;51.310;4.462;2024-03-06T12:42:04;14.40;1.00
12833;DHT22;6483;51.310;4.462;2024-03-06T12:44:31;14.60;1.00
12833;DHT22;6483;51.310;4.462;2024-03-06T12:47:23;15.10;1.00
12833;DHT22;6483;51.310;4.462;2024-03-06T12:49:49;15.20;1.00
12833;DHT22;6483;51.310;4.462;2024-03-06T12:52:16;16.40;1.00
12833;DHT22;6483;51.310;4.462;2024-03-06T12:54:42;17.10;1.00
12833;DHT22;6483;51.310;4.462;2024-03-06T12:57:10;18.10;1.00
12833;DHT22;6483;51.310;4.462;2024-03-06T12:59:39;18.30;1.00
12833;DHT22;6483;51.310;4.462;2024-03-06T13:02:05;18.50;1.00
12833;DHT22;6483;51.310;4.462;2024-03-06T13:04:31;18.60;1.00
12833;DHT22;6483;51.310;4.462;2024-03-06T13:06:57;18.60;1.00
12833;DHT22;6483;51.310;4.462;2024-03-06T13:09:23;18.60;15.50
12833;DHT22;6483;51.310;4.462;2024-03-06T13:11:52;19.30;66.60
12833;DHT22;6483;51.310;4.462;2024-03-06T13:14:19;20.90;99.90
12833;DHT22;6483;51.310;4.462;2024-03-06T13:16:49;20.70;99.90
12833;DHT22;6483;51.310;4.462;2024-03-06T13:19:33;21.40;99.90
12833;DHT22;6483;51.310;4.462;2024-03-06T13:22:02;21.90;99.90
12833;DHT22;6483;51.310;4.462;2024-03-06T13:24:28;22.50;99.90
12833;DHT22;6483;51.310;4.462;2024-03-06T13:26:54;25.30;99.90
12833;DHT22;6483;51.310;4.462;2024-03-06T13:29:19;25.60;99.90
12833;DHT22;6483;51.310;4.462;2024-03-06T13:31:45;25.10;99.90
12833;DHT22;6483;51.310;4.462;2024-03-06T13:34:17;26.00;99.90
12833;DHT22;6483;51.310;4.462;2024-03-06T13:36:46;24.30;99.90
12833;DHT22;6483;51.310;4.462;2024-03-06T13:39:18;24.80;99.90
12833;DHT22;6483;51.310;4.462;2024-03-06T13:41:50;23.90;99.90
12833;DHT22;6483;51.310;4.462;2024-03-06T13:44:18;23.90;99.90
12833;DHT22;6483;51.310;4.462;2024-03-06T13:46:46;24.00;99.90
12833;DHT22;6483;51.310;4.462;2024-03-06T13:49:39;25.90;99.90
12833;DHT22;6483;51.310;4.462;2024-03-06T13:52:06;26.40;99.90
12833;DHT22;6483;51.310;4.462;2024-03-06T13:54:42;25.90;99.90
12833;DHT22;6483;51.310;4.462;2024-03-06T13:57:11;26.50;99.90
12833;DHT22;6483;51.310;4.462;2024-03-06T13:59:40;26.40;99.90
12833;DHT22;6483;51.310;4.462;2024-03-06T14:02:09;26.70;99.90
12833;DHT22;6483;51.310;4.462;2024-03-06T14:04:35;27.60;99.90
12833;DHT22;6483;51.310;4.462;2024-03-06T14:07:00;30.50;99.90
12833;DHT22;6483;51.310;4.462;2024-03-06T14:09:29;31.50;99.90
12833;DHT22;6483;51.310;4.462;2024-03-06T14:11:56;33.10;99.90
12833;DHT22;6483;51.310;4.462;2024-03-06T14:14:25;33.80;99.90
12833;DHT22;6483;51.310;4.462;2024-03-06T14:16:50;32.50;99.90
12833;DHT22;6483;51.310;4.462;2024-03-06T14:19:21;30.00;99.90
12833;DHT22;6483;51.310;4.462;2024-03-06T14:21:48;27.20;99.90
12833;DHT22;6483;51.310;4.462;2024-03-06T14:24:14;25.90;99.90
12833;DHT22;6483;51.310;4.462;2024-03-06T14:26:40;24.60;99.90
12833;DHT22;6483;51.310;4.462;2024-03-06T14:29:13;23.40;99.90
12833;DHT22;6483;51.310;4.462;2024-03-06T14:31:42;22.70;99.90
12833;DHT22;6483;51.310;4.462;2024-03-06T14:34:08;21.80;99.90
12833;DHT22;6483;51.310;4.462;2024-03-06T14:36:35;21.20;99.90
12833;DHT22;6483;51.310;4.462;2024-03-06T14:39:03;20.70;99.90
12833;DHT22;6483;51.310;4.462;2024-03-06T14:41:29;20.20;99.90
12833;DHT22;6483;51.310;4.462;2024-03-06T14:43:55;19.70;99.90
12833;DHT22;6483;51.310;4.462;2024-03-06T14:46:24;19.40;99.90
12833;DHT22;6483;51.310;4.462;2024-03-06T14:48:49;18.90;99.90
12833;DHT22;6483;51.310;4.462;2024-03-06T14:51:18;18.40;99.90
12833;DHT22;6483;51.310;4.462;2024-03-06T14:53:47;18.00;99.90
12833;DHT22;6483;51.310;4.462;2024-03-06T14:56:13;17.60;99.90
12833;DHT22;6483;51.310;4.462;2024-03-06T14:58:39;17.20;99.90
12833;DHT22;6483;51.310;4.462;2024-03-06T15:01:05;16.80;99.90
12833;DHT22;6483;51.310;4.462;2024-03-06T15:03:31;16.50;99.90
12833;DHT22;6483;51.310;4.462;2024-03-06T15:06:00;16.10;99.90
12833;DHT22;6483;51.310;4.462;2024-03-06T15:08:29;15.80;99.90
12833;DHT22;6483;51.310;4.462;2024-03-06T15:10:54;15.50;99.90
12833;DHT22;6483;51.310;4.462;2024-03-06T15:13:20;15.30;44.80
12833;DHT22;6483;51.310;4.462;2024-03-06T15:15:49;15.20;24.70
12833;DHT22;6483;51.310;4.462;2024-03-06T15:18:15;15.10;1.00
12833;DHT22;6483;51.310;4.462;2024-03-06T15:20:41;14.90;1.00
12833;DHT22;6483;51.310;4.462;2024-03-06T15:23:10;14.70;1.00
12833;DHT22;6483;51.310;4.462;2024-03-06T15:25:38;14.40;1.00
12833;DHT22;6483;51.310;4.462;2024-03-06T15:28:28;14.40;1.00
12833;DHT22;6483;51.310;4.462;2024-03-06T15:30:59;14.30;1.00
12833;DHT22;6483;51.310;4.462;2024-03-06T15:33:29;14.20;1.00
12833;DHT22;6483;51.310;4.462;2024-03-06T15:35:58;14.10;1.00
12833;DHT22;6483;51.310;4.462;2024-03-06T15:38:26;14.00;1.00
12833;DHT22;6483;51.310;4.462;2024-03-06T15:40:53;14.00;1.00
12833;DHT22;6483;51.310;4.462;2024-03-06T15:43:21;13.90;1.00
12833;DHT22;6483;51.310;4.462;2024-03-06T15:45:47;13.80;1.00
12833;DHT22;6483;51.310;4.462;2024-03-06T15:48:13;13.80;9.20
12833;DHT22;6483;51.310;4.462;2024-03-06T15:50:43;13.70;14.20
12833;DHT22;6483;51.310;4.462;2024-03-06T15:53:12;13.60;26.60
12833;DHT22;6483;51.310;4.462;2024-03-06T15:55:38;13.50;29.00
12833;DHT22;6483;51.310;4.462;2024-03-06T15:58:05;13.40;37.80
12833;DHT22;6483;51.310;4.462;2024-03-06T16:00:31;13.40;38.60
12833;DHT22;6483;51.310;4.462;2024-03-06T16:03:03;13.30;37.30
12833;DHT22;6483;51.310;4.462;2024-03-06T16:05:29;13.30;37.40
12833;DHT22;6483;51.310;4.462;2024-03-06T16:07:59;13.30;39.40
12833;DHT22;6483;51.310;4.462;2024-03-06T16:10:28;13.30;43.80
12833;DHT22;6483;51.310;4.462;2024-03-06T16:12:54;13.30;37.30
12833;DHT22;6483;51.310;4.462;2024-03-06T16:15:23;13.20;38.20